createdAt,value
2022-12-23T00:02:00.847Z,40.00
2022-12-23T00:04:29.354Z,39.10
2022-12-23T00:06:57.530Z,38.90
2022-12-23T00:09:26.190Z,34.80
2022-12-23T00:12:15.593Z,36.70
2022-12-23T00:15:02.059Z,33.00
2022-12-23T00:17:30.918Z,34.40
2022-12-23T00:20:01.302Z,36.90
2022-12-23T00:22:47.854Z,36.90
2022-12-23T00:25:16.652Z,36.40
2022-12-23T00:28:02.128Z,36.90
2022-12-23T00:32:59.517Z,35.70
2022-12-23T00:35:32.132Z,37.90
2022-12-23T00:38:00.295Z,31.60
2022-12-23T00:40:46.819Z,35.60
2022-12-23T00:43:16.025Z,35.30
2022-12-23T00:45:45.349Z,35.20
2022-12-23T00:48:32.962Z,34.80
2022-12-23T00:51:02.869Z,39.60
2022-12-23T00:53:35.353Z,38.60
2022-12-23T00:56:03.622Z,39.80
2022-12-23T00:58:32.131Z,31.50
2022-12-23T01:01:19.187Z,36.20
2022-12-23T01:04:05.997Z,35.20
2022-12-23T01:06:34.205Z,34.90
2022-12-23T01:09:02.321Z,33.10
2022-12-23T01:11:30.573Z,34.00
2022-12-23T01:13:58.936Z,32.10
2022-12-23T01:16:27.332Z,32.90
2022-12-23T01:18:55.444Z,33.60
2022-12-23T01:21:23.701Z,31.70
2022-12-23T01:23:51.815Z,34.30
2022-12-23T01:26:19.975Z,32.40
2022-12-23T01:28:48.117Z,33.70
2022-12-23T01:31:16.364Z,32.60
2022-12-23T01:33:46.085Z,33.70
2022-12-23T01:36:14.543Z,36.40
2022-12-23T01:38:44.177Z,35.20
2022-12-23T01:41:41.013Z,33.70
2022-12-23T01:44:50.115Z,35.90
2022-12-23T01:47:50.565Z,36.20
2022-12-23T01:50:27.639Z,35.60
2022-12-23T01:53:25.411Z,38.00
2022-12-23T01:56:02.826Z,36.20
2022-12-23T01:58:34.269Z,38.60
2022-12-23T02:01:21.723Z,37.20
2022-12-23T02:04:00.287Z,35.70
2022-12-23T02:06:58.003Z,38.50
2022-12-23T02:09:30.593Z,34.20
2022-12-23T02:12:29.794Z,35.20
2022-12-23T02:15:25.324Z,38.10
2022-12-23T02:18:19.388Z,41.40
2022-12-23T02:21:14.453Z,39.20
2022-12-23T02:23:57.000Z,35.90
2022-12-23T02:26:43.077Z,38.60
2022-12-23T02:29:35.829Z,41.50
2022-12-23T02:32:18.021Z,43.30
2022-12-23T02:35:05.311Z,39.20
2022-12-23T02:37:55.397Z,40.80
2022-12-23T02:40:55.976Z,40.40
2022-12-23T02:43:42.389Z,40.10
2022-12-23T02:46:33.422Z,38.70
2022-12-23T02:49:25.596Z,40.00
2022-12-23T02:51:59.026Z,36.10
2022-12-23T02:54:38.864Z,36.90
2022-12-23T02:57:09.928Z,39.90
2022-12-23T02:59:47.209Z,38.70
2022-12-23T03:02:15.586Z,37.00
2022-12-23T03:04:44.397Z,34.00
2022-12-23T03:07:24.214Z,33.90
2022-12-23T03:09:58.105Z,34.50
2022-12-23T03:12:50.801Z,34.40
2022-12-23T03:15:47.172Z,33.50
2022-12-23T03:18:43.267Z,33.50
2022-12-23T03:21:42.196Z,34.00
2022-12-23T03:24:48.172Z,34.00
2022-12-23T03:27:46.752Z,33.40
2022-12-23T03:30:18.996Z,32.90
2022-12-23T03:33:02.595Z,33.70
2022-12-23T03:35:39.910Z,34.50
2022-12-23T03:38:10.718Z,39.20
2022-12-23T03:40:47.356Z,32.60
2022-12-23T03:43:26.122Z,35.70
2022-12-23T03:46:00.964Z,37.80
2022-12-23T03:48:48.031Z,35.40
2022-12-23T03:51:23.605Z,37.80
2022-12-23T03:53:59.471Z,39.40
2022-12-23T03:56:43.492Z,35.40
2022-12-23T03:59:27.230Z,29.90
2022-12-23T04:02:16.702Z,31.20
2022-12-23T04:05:08.033Z,33.10
2022-12-23T04:07:48.411Z,31.20
2022-12-23T04:10:16.700Z,35.10
2022-12-23T04:12:44.962Z,30.10
2022-12-23T04:15:13.637Z,31.10
2022-12-23T04:17:41.998Z,32.50
2022-12-23T04:20:11.063Z,30.00
2022-12-23T04:22:39.793Z,32.10
2022-12-23T04:25:08.745Z,30.70
2022-12-23T04:27:37.351Z,35.20
2022-12-23T04:30:08.346Z,36.60
2022-12-23T04:32:37.167Z,31.60
2022-12-23T04:35:06.292Z,32.90
2022-12-23T04:37:35.195Z,34.80
2022-12-23T04:40:05.159Z,34.80
2022-12-23T04:42:34.159Z,34.20
2022-12-23T04:45:03.213Z,31.30
2022-12-23T04:47:31.387Z,30.40
2022-12-23T04:49:59.566Z,34.30
2022-12-23T04:52:27.969Z,36.50
2022-12-23T04:54:56.192Z,36.00
2022-12-23T04:57:24.385Z,34.10
2022-12-23T04:59:52.577Z,34.20
2022-12-23T05:02:20.789Z,32.90
2022-12-23T05:04:49.174Z,35.50
2022-12-23T05:07:17.379Z,33.00
2022-12-23T05:09:45.710Z,31.20
2022-12-23T05:12:13.848Z,32.10
2022-12-23T05:14:42.122Z,32.20
2022-12-23T05:17:15.097Z,33.70
2022-12-23T05:19:43.483Z,33.80
2022-12-23T05:22:12.486Z,32.10
2022-12-23T05:24:40.739Z,35.60
2022-12-23T05:27:10.215Z,32.70
2022-12-23T05:29:38.438Z,30.50
2022-12-23T05:32:07.282Z,35.20
2022-12-23T05:34:38.365Z,30.60
2022-12-23T05:37:10.576Z,31.70
2022-12-23T05:39:38.892Z,31.20
2022-12-23T05:42:07.124Z,30.20
2022-12-23T05:44:35.291Z,31.00
2022-12-23T05:47:03.411Z,30.20
2022-12-23T05:49:31.726Z,33.80
2022-12-23T05:51:59.828Z,32.70
2022-12-23T05:54:27.995Z,35.60
2022-12-23T05:56:56.168Z,34.90
2022-12-23T05:59:30.605Z,34.60
2022-12-23T06:01:59.573Z,34.70
2022-12-23T06:04:28.054Z,36.40
2022-12-23T06:06:56.462Z,36.40
2022-12-23T06:09:24.645Z,34.90
2022-12-23T06:11:53.207Z,36.60
2022-12-23T06:14:28.345Z,35.00
2022-12-23T06:16:57.295Z,31.30
2022-12-23T06:19:27.179Z,32.30
2022-12-23T06:21:55.500Z,31.10
2022-12-23T06:24:23.609Z,35.90
2022-12-23T06:26:56.799Z,31.70
2022-12-23T06:29:28.306Z,33.90
2022-12-23T06:31:56.531Z,30.40
2022-12-23T06:34:25.256Z,31.80
2022-12-23T06:36:53.645Z,33.00
2022-12-23T06:39:22.312Z,33.60
2022-12-23T06:41:53.285Z,33.30
2022-12-23T06:44:23.104Z,31.80
2022-12-23T06:46:51.371Z,33.00
2022-12-23T06:49:19.654Z,33.80
2022-12-23T06:51:48.033Z,33.30
2022-12-23T06:54:16.304Z,33.50
2022-12-23T06:56:44.449Z,32.80
2022-12-23T06:59:12.701Z,35.60
2022-12-23T07:01:40.945Z,32.90
2022-12-23T07:04:10.500Z,34.40
2022-12-23T07:06:39.672Z,34.60
2022-12-23T07:09:15.324Z,35.50
2022-12-23T07:11:43.517Z,35.50
2022-12-23T07:14:11.748Z,35.40
2022-12-23T07:16:44.733Z,34.20
2022-12-23T07:19:14.540Z,35.20
2022-12-23T07:21:43.479Z,33.60
2022-12-23T07:24:12.010Z,30.90
2022-12-23T07:26:40.117Z,31.80
2022-12-23T07:29:08.274Z,29.60
2022-12-23T07:31:40.777Z,29.90
2022-12-23T07:34:10.088Z,31.10
2022-12-23T07:36:38.351Z,30.20
2022-12-23T07:39:06.749Z,28.70
2022-12-23T07:41:37.333Z,31.00
2022-12-23T07:44:08.857Z,29.30
2022-12-23T07:46:38.288Z,30.10
2022-12-23T07:49:06.749Z,29.40
2022-12-23T07:51:34.885Z,31.10
2022-12-23T07:54:03.382Z,32.70
2022-12-23T07:56:31.566Z,33.60
2022-12-23T07:58:59.811Z,30.80
2022-12-23T08:01:27.947Z,34.40
2022-12-23T08:03:56.199Z,31.80
2022-12-23T08:06:24.374Z,32.90
2022-12-23T08:08:52.562Z,34.50
2022-12-23T08:11:20.896Z,36.50
2022-12-23T08:13:49.319Z,37.70
2022-12-23T08:16:17.584Z,36.60
2022-12-23T08:18:45.744Z,37.10
2022-12-23T08:21:19.526Z,35.10
2022-12-23T08:23:48.350Z,25.70
2022-12-23T08:26:22.920Z,32.60
2022-12-23T08:28:53.656Z,34.50
2022-12-23T08:31:28.939Z,33.70
2022-12-23T08:33:59.316Z,34.10
2022-12-23T08:36:31.521Z,35.60
2022-12-23T08:39:05.913Z,29.70
2022-12-23T08:41:40.316Z,32.90
2022-12-23T08:44:08.937Z,35.10
2022-12-23T08:46:37.945Z,33.30
2022-12-23T08:49:07.436Z,36.00
2022-12-23T08:51:36.830Z,30.50
2022-12-23T08:54:05.681Z,33.70
2022-12-23T08:56:39.453Z,37.10
2022-12-23T08:59:18.262Z,35.70
2022-12-23T09:01:48.542Z,34.20
2022-12-23T09:04:17.188Z,30.90
2022-12-23T09:06:45.736Z,36.70
2022-12-23T09:09:16.312Z,35.40
2022-12-23T09:11:44.722Z,35.40
2022-12-23T09:14:13.579Z,32.80
2022-12-23T09:16:41.859Z,34.70
2022-12-23T09:19:10.188Z,28.20
2022-12-23T09:21:38.524Z,32.10
2022-12-23T09:24:07.280Z,31.00
2022-12-23T09:26:35.575Z,31.40
2022-12-23T09:29:03.829Z,30.00
2022-12-23T09:31:36.603Z,33.80
2022-12-23T09:34:06.309Z,33.10
2022-12-23T09:36:34.799Z,32.80
2022-12-23T09:39:03.670Z,32.20
2022-12-23T09:42:02.269Z,34.30
2022-12-23T09:44:43.198Z,33.10
2022-12-23T09:47:20.024Z,34.70
2022-12-23T09:52:31.955Z,25.90
2022-12-23T09:55:00.860Z,31.80
2022-12-23T09:57:54.682Z,36.10
2022-12-23T10:00:23.839Z,33.20
2022-12-23T10:03:13.948Z,30.30
2022-12-23T10:06:04.084Z,35.40
2022-12-23T10:08:32.344Z,33.80
2022-12-23T10:11:15.594Z,35.80
2022-12-23T10:14:01.932Z,38.00
2022-12-23T10:16:35.899Z,35.70
2022-12-23T10:19:29.012Z,38.80
2022-12-23T10:22:10.366Z,36.30
2022-12-23T10:24:45.838Z,36.60
2022-12-23T10:27:31.363Z,33.00
2022-12-23T10:33:51.905Z,29.90
2022-12-23T10:37:01.189Z,33.40
2022-12-23T10:39:41.413Z,32.80
2022-12-23T10:42:39.409Z,35.50
2022-12-23T10:45:23.530Z,35.00
2022-12-23T10:47:57.891Z,35.00
2022-12-23T10:50:47.421Z,32.20
2022-12-23T10:53:51.449Z,35.40
2022-12-23T10:56:21.134Z,36.00
2022-12-23T10:58:55.766Z,32.00
2022-12-23T11:01:27.382Z,32.40
2022-12-23T11:04:07.799Z,30.40
2022-12-23T11:06:43.947Z,32.50
2022-12-23T11:09:19.302Z,30.20
2022-12-23T11:11:54.671Z,33.40
2022-12-23T11:14:57.848Z,29.10
2022-12-23T11:17:33.566Z,28.50
2022-12-23T11:20:18.067Z,28.60
2022-12-23T11:23:07.256Z,29.90
2022-12-23T11:25:41.497Z,25.60
2022-12-23T11:28:22.341Z,29.40
2022-12-23T11:31:12.113Z,28.00
2022-12-23T11:33:57.952Z,24.10
2022-12-23T11:36:28.885Z,29.80
2022-12-23T11:39:12.178Z,28.50
2022-12-23T11:41:47.616Z,32.20
2022-12-23T11:44:45.762Z,30.50
2022-12-23T11:47:37.475Z,29.20
2022-12-23T11:50:32.644Z,31.50
2022-12-23T11:53:12.949Z,29.40
2022-12-23T11:55:58.008Z,26.20
2022-12-23T11:58:29.002Z,26.30
2022-12-23T12:01:01.170Z,29.20
2022-12-23T12:03:39.803Z,27.80
2022-12-23T12:06:13.243Z,31.50
2022-12-23T12:08:48.344Z,28.10
2022-12-23T12:11:56.737Z,29.80
2022-12-23T12:14:41.124Z,26.70
2022-12-23T12:17:48.644Z,25.80
2022-12-23T12:20:36.524Z,26.10
2022-12-23T12:23:45.630Z,25.80
2022-12-23T12:26:27.271Z,26.90
2022-12-23T12:29:34.992Z,25.30
2022-12-23T12:32:10.513Z,28.70
2022-12-23T12:34:51.696Z,27.20
2022-12-23T12:37:29.577Z,24.00
2022-12-23T12:40:32.499Z,22.40
2022-12-23T12:43:26.679Z,27.70
2022-12-23T12:46:45.314Z,21.50
2022-12-23T12:49:46.174Z,23.80
2022-12-23T12:52:20.669Z,26.50
2022-12-23T12:55:30.140Z,26.80
2022-12-23T12:57:58.408Z,26.10
2022-12-23T13:00:27.191Z,27.50
2022-12-23T13:03:32.318Z,28.30
2022-12-23T13:06:31.435Z,29.60
2022-12-23T13:09:20.793Z,28.40
2022-12-23T13:12:01.967Z,28.50
2022-12-23T13:15:00.649Z,28.70
2022-12-23T13:17:42.995Z,28.30
2022-12-23T13:20:24.531Z,28.60
2022-12-23T13:23:26.937Z,25.90
2022-12-23T13:26:08.898Z,24.50
2022-12-23T13:28:51.402Z,25.40
2022-12-23T13:31:53.480Z,26.70
2022-12-23T13:34:44.510Z,24.50
2022-12-23T13:37:18.618Z,25.70
2022-12-23T13:40:37.760Z,26.20
2022-12-23T13:43:22.550Z,26.20
2022-12-23T13:45:54.375Z,25.70
2022-12-23T13:48:31.372Z,24.80
2022-12-23T13:51:35.724Z,23.20
2022-12-23T13:54:58.643Z,23.80
2022-12-23T13:57:44.868Z,24.60
2022-12-23T14:00:19.240Z,23.50
2022-12-23T14:02:52.709Z,27.20
2022-12-23T14:05:46.040Z,30.40
2022-12-23T14:08:22.448Z,29.30
2022-12-23T14:11:16.028Z,26.20
2022-12-23T14:13:51.791Z,23.00
2022-12-23T14:16:56.171Z,29.30
2022-12-23T14:19:57.841Z,28.10
2022-12-23T14:22:43.165Z,25.10
2022-12-23T14:25:36.692Z,26.70
2022-12-23T14:28:31.956Z,26.50
2022-12-23T14:31:03.548Z,26.40
2022-12-23T14:33:37.167Z,28.30
2022-12-23T14:36:25.098Z,27.00
2022-12-23T14:39:11.740Z,25.90
2022-12-23T14:41:54.536Z,26.90
2022-12-23T14:44:37.266Z,27.10
2022-12-23T14:47:40.582Z,26.50
2022-12-23T14:50:42.830Z,24.80
2022-12-23T14:53:22.807Z,26.90
2022-12-23T14:56:14.627Z,26.70
2022-12-23T14:58:45.890Z,25.60
2022-12-23T15:01:36.236Z,26.30
2022-12-23T15:04:28.643Z,26.10
2022-12-23T15:07:13.755Z,25.20
2022-12-23T15:10:01.355Z,31.90
2022-12-23T15:12:43.751Z,29.50
2022-12-23T15:15:14.968Z,29.70
2022-12-23T15:17:43.566Z,29.60
2022-12-23T15:20:18.828Z,28.50
2022-12-23T15:22:48.611Z,28.30
2022-12-23T15:25:30.548Z,28.30
2022-12-23T15:28:02.373Z,28.90
2022-12-23T15:30:46.038Z,26.70
2022-12-23T15:34:00.722Z,28.20
2022-12-23T15:36:10.487Z,26.40
2022-12-23T15:38:39.637Z,27.80
2022-12-23T15:41:16.778Z,27.90
2022-12-23T15:43:46.493Z,26.70
2022-12-23T15:46:29.246Z,26.30
2022-12-23T15:48:58.658Z,24.70
2022-12-23T15:52:06.467Z,27.50
2022-12-23T15:54:35.190Z,26.20
2022-12-23T15:57:04.737Z,26.20
2022-12-23T15:59:42.198Z,27.30
2022-12-23T16:05:33.779Z,26.90
2022-12-23T16:08:30.201Z,27.10
2022-12-23T16:11:21.104Z,33.00
2022-12-23T16:14:01.367Z,31.60
2022-12-23T16:16:43.306Z,37.10
2022-12-23T16:19:47.510Z,33.00
2022-12-23T16:22:35.744Z,35.00
2022-12-23T16:25:16.221Z,31.10
2022-12-23T16:28:02.391Z,30.40
2022-12-23T16:30:41.860Z,36.80
2022-12-23T16:33:37.421Z,33.30
2022-12-23T16:36:27.665Z,35.00
2022-12-23T16:39:06.507Z,35.00
2022-12-23T16:41:35.913Z,29.20
2022-12-23T16:44:04.526Z,33.80
2022-12-23T16:46:42.957Z,32.90
2022-12-23T16:49:27.954Z,31.70
2022-12-23T16:51:59.703Z,31.40
2022-12-23T16:54:27.800Z,30.70
2022-12-23T16:56:55.918Z,32.30
2022-12-23T16:59:26.037Z,29.70
2022-12-23T17:01:59.562Z,31.20
2022-12-23T17:04:31.226Z,28.50
2022-12-23T17:06:59.467Z,28.10
2022-12-23T17:09:27.618Z,28.50
2022-12-23T17:11:56.418Z,30.20
2022-12-23T17:14:25.845Z,30.30
2022-12-23T17:16:54.203Z,36.00
2022-12-23T17:19:28.766Z,32.30
2022-12-23T17:22:04.419Z,29.90
2022-12-23T17:24:32.659Z,31.90
2022-12-23T17:27:00.784Z,30.70
2022-12-23T17:29:29.001Z,33.10
2022-12-23T17:31:57.226Z,33.40
2022-12-23T17:34:25.412Z,30.80
2022-12-23T17:36:53.579Z,28.20
2022-12-23T17:39:22.587Z,31.30
2022-12-23T17:41:51.290Z,28.30
2022-12-23T17:44:19.702Z,31.50
2022-12-23T17:46:48.407Z,34.00
2022-12-23T17:49:16.611Z,30.80
2022-12-23T17:51:44.863Z,30.50
2022-12-23T17:54:23.900Z,30.10
2022-12-23T17:56:52.969Z,28.60
2022-12-23T17:59:21.868Z,27.80
2022-12-23T18:01:50.663Z,28.50
2022-12-23T18:04:19.031Z,29.20
2022-12-23T18:06:47.219Z,29.40
2022-12-23T18:09:15.484Z,28.20
2022-12-23T18:11:46.807Z,31.70
2022-12-23T18:14:28.236Z,28.20
2022-12-23T18:16:56.510Z,29.70
2022-12-23T18:19:25.638Z,28.30
2022-12-23T18:21:53.747Z,29.90
2022-12-23T18:24:21.947Z,30.20
2022-12-23T18:26:50.108Z,29.70
2022-12-23T18:29:18.636Z,29.70
2022-12-23T18:31:51.506Z,30.80
2022-12-23T18:34:21.267Z,32.80
2022-12-23T18:36:51.696Z,33.40
2022-12-23T18:39:21.223Z,30.20
2022-12-23T18:41:49.440Z,31.40
2022-12-23T18:44:21.601Z,30.20
2022-12-23T18:46:50.625Z,28.20
2022-12-23T18:49:18.993Z,29.60
2022-12-23T18:51:47.487Z,26.20
2022-12-23T18:54:16.876Z,25.70
2022-12-23T18:56:45.512Z,28.40
2022-12-23T18:59:24.313Z,28.80
2022-12-23T19:01:58.799Z,26.50
2022-12-23T19:04:27.473Z,31.30
2022-12-23T19:06:57.792Z,32.70
2022-12-23T19:09:26.423Z,32.00
2022-12-23T19:11:54.705Z,32.80
2022-12-23T19:14:23.271Z,32.10
2022-12-23T19:16:52.624Z,30.60
2022-12-23T19:19:21.984Z,31.40
2022-12-23T19:21:50.064Z,29.20
2022-12-23T19:24:18.334Z,29.70
2022-12-23T19:26:46.839Z,31.10
2022-12-23T19:29:15.162Z,29.20
2022-12-23T19:31:43.301Z,31.30
2022-12-23T19:34:15.352Z,33.90
2022-12-23T19:36:44.454Z,30.10
2022-12-23T19:39:17.271Z,33.20
2022-12-23T19:41:45.732Z,30.40
2022-12-23T19:44:14.842Z,29.90
2022-12-23T19:46:43.282Z,31.00
2022-12-23T19:49:19.296Z,32.20
2022-12-23T19:51:49.016Z,29.70
2022-12-23T19:54:19.288Z,33.30
2022-12-23T19:56:51.411Z,33.40
2022-12-23T19:59:20.472Z,34.10
2022-12-23T20:01:48.695Z,32.20
2022-12-23T20:04:17.255Z,32.80
2022-12-23T20:06:45.361Z,34.80
2022-12-23T20:09:13.891Z,31.40
2022-12-23T20:11:46.044Z,30.30
2022-12-23T20:14:17.769Z,31.70
2022-12-23T20:16:45.869Z,29.40
2022-12-23T20:19:14.660Z,29.00
2022-12-23T20:21:45.271Z,33.20
2022-12-23T20:24:15.281Z,30.40
2022-12-23T20:26:43.451Z,38.70
2022-12-23T20:29:12.002Z,30.20
2022-12-23T20:31:40.588Z,32.80
2022-12-23T20:34:15.392Z,36.10
2022-12-23T20:36:43.639Z,32.80
2022-12-23T20:39:12.155Z,31.40
2022-12-23T20:41:40.286Z,31.40
2022-12-23T20:44:33.836Z,37.60
2022-12-23T20:46:56.547Z,35.50
2022-12-23T20:49:24.918Z,35.60
2022-12-23T20:51:53.073Z,34.80
2022-12-23T20:54:24.912Z,35.10
2022-12-23T20:56:56.229Z,37.90
2022-12-23T20:59:24.418Z,33.30
2022-12-23T21:01:52.642Z,34.50
2022-12-23T21:04:22.646Z,35.80
2022-12-23T21:06:51.054Z,39.20
2022-12-23T21:09:19.339Z,33.20
2022-12-23T21:11:47.906Z,34.70
2022-12-23T21:14:16.582Z,36.80
2022-12-23T21:16:45.086Z,36.00
2022-12-23T21:19:18.179Z,30.10
2022-12-23T21:21:47.647Z,35.00
2022-12-23T21:24:16.937Z,33.50
2022-12-23T21:26:49.005Z,36.60
2022-12-23T21:31:50.004Z,32.90
2022-12-23T21:34:18.223Z,34.80
2022-12-23T21:36:46.388Z,36.20
2022-12-23T21:39:16.434Z,35.90
2022-12-23T21:41:46.026Z,38.60
2022-12-23T21:44:15.066Z,40.60
2022-12-23T21:46:43.521Z,33.00
2022-12-23T21:49:12.014Z,37.20
2022-12-23T21:51:41.523Z,36.20
2022-12-23T21:54:11.419Z,34.10
2022-12-23T21:56:40.896Z,34.30
2022-12-23T21:59:14.205Z,33.50
2022-12-23T22:01:43.484Z,34.10
2022-12-23T22:04:11.815Z,33.40
2022-12-23T22:06:45.746Z,32.20
2022-12-23T22:09:19.654Z,33.30
2022-12-23T22:11:48.703Z,33.10
2022-12-23T22:14:19.742Z,33.30
2022-12-23T22:16:48.277Z,31.40
2022-12-23T22:19:16.986Z,33.30
2022-12-23T22:21:45.092Z,36.10
2022-12-23T22:24:13.169Z,34.10
2022-12-23T22:26:41.949Z,41.80
2022-12-23T22:29:11.993Z,39.00
2022-12-23T22:31:53.191Z,34.90
2022-12-23T22:34:23.208Z,35.30
2022-12-23T22:36:51.398Z,36.90
2022-12-23T22:39:21.975Z,39.90
2022-12-23T22:41:51.654Z,37.50
2022-12-23T22:44:20.756Z,34.90
2022-12-23T22:46:49.956Z,37.80
2022-12-23T22:49:18.256Z,35.60
2022-12-23T22:51:46.428Z,32.50
2022-12-23T22:54:14.973Z,34.50
2022-12-23T22:56:43.219Z,34.50
2022-12-23T22:59:29.214Z,35.20
2022-12-23T23:01:57.398Z,34.20
2022-12-23T23:04:25.591Z,36.60
2022-12-23T23:06:53.762Z,30.90
2022-12-23T23:09:22.915Z,30.50
2022-12-23T23:11:51.468Z,30.20
2022-12-23T23:14:20.199Z,33.80
2022-12-23T23:16:48.631Z,37.50
2022-12-23T23:19:20.391Z,33.50
2022-12-23T23:21:48.932Z,33.20
2022-12-23T23:24:17.644Z,34.00
2022-12-23T23:26:45.661Z,34.20
2022-12-23T23:29:15.011Z,37.00
2022-12-23T23:31:44.288Z,36.50
2022-12-23T23:34:13.581Z,34.70
2022-12-23T23:36:42.208Z,38.90
2022-12-23T23:39:13.032Z,34.60
2022-12-23T23:41:42.226Z,35.10
2022-12-23T23:44:12.229Z,35.10
2022-12-23T23:46:40.395Z,37.00
2022-12-23T23:49:08.638Z,34.30
2022-12-23T23:51:37.334Z,33.20
2022-12-23T23:54:06.114Z,36.00
2022-12-23T23:56:38.629Z,33.90
2022-12-23T23:59:09.212Z,40.30
